Time;durP1;ratioP1;P1;durP2;ratioP2;P2;SDS_P1;SDS_P2;PMS_P1;PMS_P2;Temp;Humidity;BMP_temperature;BMP_pressure;BME280_temperature;BME280_humidity;BME280_pressure;Samples;Min_cycle;Max_cycle;Signal;HPM_P1;HPM_P2
2022/06/05 00:00:09;;;;;;;6.63;3.25;;;;;;;22.21;39.69;99440.56;5052531;28;20067;-69
2022/06/05 00:02:37;;;;;;;5.55;3.55;;;;;;;22.21;39.73;99427.94;5057464;28;20028;-69
2022/06/05 00:05:12;;;;;;;6.57;3.45;;;;;;;22.20;39.85;99428.16;5052912;28;20032;-70
2022/06/05 00:08:00;;;;;;;7.32;3.58;;;;;;;22.19;39.68;99421.09;5052281;28;20497;-72
2022/06/05 00:10:33;;;;;;;10.13;3.30;;;;;;;22.16;40.06;99414.22;5052791;28;20041;-69
2022/06/05 00:13:17;;;;;;;5.32;2.88;;;;;;;22.18;39.94;99416.75;5052614;28;20037;-69
2022/06/05 00:15:42;;;;;;;5.40;3.10;;;;;;;22.14;40.03;99413.59;5053060;28;20037;-67
2022/06/05 00:18:08;;;;;;;4.10;2.97;;;;;;;22.17;40.10;99413.19;5052577;28;20040;-67
2022/06/05 00:20:33;;;;;;;5.55;4.03;;;;;;;22.15;39.89;99403.66;5052570;28;20021;-68
2022/06/05 00:22:59;;;;;;;6.38;3.30;;;;;;;22.20;40.13;99403.91;5052292;28;20039;-67
2022/06/05 00:25:36;;;;;;;9.30;3.63;;;;;;;22.20;40.24;99398.50;5054898;28;20037;-69
2022/06/05 00:28:06;;;;;;;5.15;3.20;;;;;;;22.18;40.26;99396.00;5052573;28;20037;-68
2022/06/05 00:30:47;;;;;;;7.10;3.13;;;;;;;22.18;40.32;99395.19;5052030;28;20420;-67
2022/06/05 00:33:15;;;;;;;16.38;3.58;;;;;;;22.17;40.39;99385.44;5052327;28;20090;-68
2022/06/05 00:36:12;;;;;;;5.22;3.20;;;;;;;22.15;40.36;99377.53;5052127;28;20439;-67
2022/06/05 00:39:13;;;;;;;8.50;3.20;;;;;;;22.14;40.37;99381.25;5051604;28;20392;-69
2022/06/05 00:41:59;;;;;;;8.00;2.72;;;;;;;22.13;40.47;99393.06;5051896;28;20044;-67
2022/06/05 00:44:38;;;;;;;5.20;3.08;;;;;;;22.12;40.48;99386.03;5052325;28;20136;-70
2022/06/05 00:47:08;;;;;;;3.65;2.88;;;;;;;22.12;40.69;99375.25;5052450;28;20033;-67
2022/06/05 00:49:41;;;;;;;6.10;3.25;;;;;;;22.12;40.51;99369.03;5052506;28;20040;-69
2022/06/05 00:52:09;;;;;;;4.40;2.70;;;;;;;22.12;40.56;99372.56;5052198;28;20037;-70
2022/06/05 00:54:35;;;;;;;7.82;2.97;;;;;;;22.11;40.67;99368.22;5052496;28;20063;-69
2022/06/05 00:57:01;;;;;;;4.15;3.13;;;;;;;22.11;40.71;99376.28;5052004;28;20435;-69
2022/06/05 00:59:27;;;;;;;3.72;2.60;;;;;;;22.10;40.57;99371.94;5052376;28;20408;-69
2022/06/05 01:01:53;;;;;;;5.07;2.83;;;;;;;22.09;40.55;99368.38;5052287;28;20447;-67
2022/06/05 01:04:19;;;;;;;5.18;3.33;;;;;;;22.08;40.53;99368.59;5052163;28;20032;-67
2022/06/05 01:06:45;;;;;;;4.25;2.60;;;;;;;22.08;40.76;99364.03;5052196;28;20044;-68
2022/06/05 01:09:11;;;;;;;4.30;2.83;;;;;;;22.09;40.62;99354.09;5052306;28;20389;-70
2022/06/05 01:12:07;;;;;;;4.30;2.83;;;;;;;22.08;40.68;99355.94;5051840;28;20083;-69
2022/06/05 01:14:53;;;;;;;6.68;3.30;;;;;;;22.07;40.60;99358.84;5055983;28;20123;-68
2022/06/05 01:17:38;;;;;;;3.67;2.80;;;;;;;22.06;40.70;99358.00;5056043;28;20101;-69
2022/06/05 01:20:09;;;;;;;5.43;2.60;;;;;;;22.07;40.72;99358.84;5056078;28;20032;-68
2022/06/05 01:23:02;;;;;;;5.65;2.67;;;;;;;22.07;40.76;99356.16;5055622;28;20120;-67
2022/06/05 01:25:39;;;;;;;3.35;2.42;;;;;;;22.06;40.77;99357.19;5055373;28;20499;-69
2022/06/05 01:28:12;;;;;;;3.58;2.60;;;;;;;22.07;40.73;99356.16;5055346;28;20503;-69
2022/06/05 01:30:48;;;;;;;5.13;2.95;;;;;;;22.04;40.91;99352.00;5055393;28;20136;-69
2022/06/05 01:33:22;;;;;;;6.00;3.22;;;;;;;22.05;40.78;99358.22;5055570;28;20037;-68
2022/06/05 01:35:53;;;;;;;5.45;3.05;;;;;;;22.06;40.79;99351.81;5055047;28;20562;-68
2022/06/05 01:38:29;;;;;;;3.90;2.72;;;;;;;22.05;40.81;99353.69;5055214;28;20068;-67
2022/06/05 01:40:59;;;;;;;4.20;2.85;;;;;;;22.05;40.81;99347.44;5055298;28;20036;-68
2022/06/05 01:43:30;;;;;;;5.15;2.42;;;;;;;22.07;40.88;99351.59;5055311;28;20079;-66
2022/06/05 01:46:04;;;;;;;3.28;2.40;;;;;;;22.07;40.82;99346.19;5055510;28;20037;-68
2022/06/05 01:48:37;;;;;;;3.83;2.30;;;;;;;22.07;40.99;99348.06;5055525;28;20040;-69
2022/06/05 01:51:09;;;;;;;4.03;2.53;;;;;;;22.06;40.83;99339.16;5055289;28;20048;-68
2022/06/05 01:53:45;;;;;;;5.85;2.97;;;;;;;22.07;40.94;99362.38;5055497;28;20036;-67
2022/06/05 01:56:26;;;;;;;4.38;3.78;;;;;;;22.08;40.88;99338.97;5055140;28;20036;-68
2022/06/05 01:59:03;;;;;;;6.53;3.08;;;;;;;22.09;41.05;99337.94;5055364;28;20044;-68
2022/06/05 02:01:36;;;;;;;3.75;2.65;;;;;;;22.09;41.02;99348.72;5055208;28;20033;-69
2022/06/05 02:04:15;;;;;;;4.40;2.60;;;;;;;22.09;40.94;99329.84;5055170;28;20071;-69
2022/06/05 02:06:49;;;;;;;3.25;2.55;;;;;;;22.10;41.08;99334.22;5054599;28;20543;-68
2022/06/05 02:09:22;;;;;;;7.88;2.55;;;;;;;22.12;41.00;99336.69;5037358;28;20404;-69
2022/06/05 02:11:49;;;;;;;4.93;2.70;;;;;;;22.12;40.89;99342.94;5054832;28;20540;-67
2022/06/05 02:14:15;;;;;;;3.45;2.10;;;;;;;22.12;40.74;99332.16;5054673;28;20068;-69
2022/06/05 02:16:42;;;;;;;3.92;2.80;;;;;;;22.14;40.68;99323.84;5054678;28;20053;-68
2022/06/05 02:19:12;;;;;;;4.90;2.45;;;;;;;22.15;40.84;99326.34;5054697;28;20079;-69
2022/06/05 02:21:39;;;;;;;3.92;2.63;;;;;;;22.18;40.85;99327.81;5054670;28;20033;-69
2022/06/05 02:24:07;;;;;;;4.72;2.83;;;;;;;22.27;40.82;99323.06;5054485;28;20032;-70
2022/06/05 02:26:32;;;;;;;3.65;2.53;;;;;;;22.43;40.77;99322.72;5054574;28;20076;-69
2022/06/05 02:29:04;;;;;;;4.20;3.00;;;;;;;22.59;40.56;99326.06;5055058;28;20439;-69
2022/06/05 02:32:10;;;;;;;5.80;2.65;;;;;;;22.75;40.38;99322.16;5054171;28;20203;-69
2022/06/05 02:34:53;;;;;;;4.78;2.92;;;;;;;22.91;40.26;99318.22;5044143;28;20040;-67
2022/06/05 02:37:51;;;;;;;3.17;2.53;;;;;;;22.99;39.96;99318.84;5074239;28;20028;-68
2022/06/05 02:40:32;;;;;;;7.85;2.53;;;;;;;23.01;40.23;99322.16;5074873;28;20083;-70
2022/06/05 02:43:19;;;;;;;6.65;2.90;;;;;;;22.99;39.96;99318.03;5074311;28;20097;-68
2022/06/05 02:45:55;;;;;;;3.55;2.50;;;;;;;22.99;39.91;99321.53;5074224;28;20040;-67
2022/06/05 02:49:05;;;;;;;4.88;2.38;;;;;;;22.98;40.28;99319.88;5073968;28;20035;-67
2022/06/05 02:51:35;;;;;;;5.32;2.55;;;;;;;22.98;40.57;99319.06;5074314;28;20070;-68
2022/06/05 02:54:01;;;;;;;3.45;2.03;;;;;;;22.97;40.60;99307.41;5074210;28;20032;-69
2022/06/05 02:56:29;;;;;;;6.00;2.70;;;;;;;22.98;40.71;99308.28;5073865;28;20113;-68
2022/06/05 02:58:57;;;;;;;4.05;2.78;;;;;;;23.01;40.81;99307.84;5074097;28;20032;-67
2022/06/05 03:04:08;;;;;;;4.00;2.45;;;;;;;23.07;40.67;99312.41;5056444;28;20132;-68
2022/06/05 03:06:36;;;;;;;4.25;2.95;;;;;;;23.10;40.64;99306.59;5053769;28;20048;-69
2022/06/05 03:09:01;;;;;;;5.57;3.03;;;;;;;23.16;40.57;99313.84;5053993;28;20033;-68
2022/06/05 03:11:26;;;;;;;5.75;3.03;;;;;;;23.26;40.62;99308.06;5053717;28;20407;-68
2022/06/05 03:13:52;;;;;;;6.25;2.53;;;;;;;23.44;40.24;99309.28;5054018;28;20041;-69
2022/06/05 03:16:18;;;;;;;2.85;2.20;;;;;;;23.62;39.83;99309.44;5053772;28;20094;-70
2022/06/05 03:18:43;;;;;;;5.75;3.00;;;;;;;23.86;39.57;99304.38;5053672;28;20043;-70
2022/06/05 03:21:09;;;;;;;3.28;2.40;;;;;;;23.89;39.51;99303.94;5053428;28;20033;-69
2022/06/05 03:23:34;;;;;;;2.63;1.95;;;;;;;23.88;39.51;99291.47;5053558;28;20032;-71
2022/06/05 03:26:00;;;;;;;3.63;2.15;;;;;;;23.80;39.21;99294.44;5053010;28;20049;-69
2022/06/05 03:28:26;;;;;;;3.45;2.20;;;;;;;23.73;39.04;99307.97;5053317;28;20500;-68
2022/06/05 03:30:52;;;;;;;3.92;1.95;;;;;;;23.64;39.29;99303.00;5053219;28;20057;-70
2022/06/05 03:33:18;;;;;;;2.90;2.03;;;;;;;23.58;38.88;99293.88;5053547;28;20036;-71
2022/06/05 03:35:45;;;;;;;5.10;2.08;;;;;;;23.54;39.00;99289.94;5052412;28;20041;-69
2022/06/05 03:38:13;;;;;;;5.40;2.15;;;;;;;23.50;38.94;99292.25;5053695;28;20028;-70
2022/06/05 03:40:41;;;;;;;2.97;2.33;;;;;;;23.47;39.15;99290.78;5053141;28;20028;-70
2022/06/05 03:43:06;;;;;;;3.75;2.08;;;;;;;23.41;39.02;99280.84;5053629;28;20052;-70
2022/06/05 03:45:32;;;;;;;3.05;2.08;;;;;;;23.42;39.42;99285.19;5053136;28;20032;-69
2022/06/05 03:47:57;;;;;;;4.78;2.20;;;;;;;23.40;39.17;99291.81;5053187;28;20059;-69
2022/06/05 03:50:23;;;;;;;3.67;2.33;;;;;;;23.37;39.48;99285.00;5053191;28;20399;-69
2022/06/05 03:52:49;;;;;;;3.38;1.98;;;;;;;23.39;39.49;99284.78;5052936;28;20045;-70
2022/06/05 03:55:17;;;;;;;2.97;2.20;;;;;;;23.37;39.13;99278.78;5034732;28;20040;-69
2022/06/05 03:57:43;;;;;;;2.60;2.20;;;;;;;23.43;39.28;99286.84;5052884;28;20040;-69
2022/06/05 04:00:10;;;;;;;3.28;2.17;;;;;;;23.50;39.08;99288.69;5052797;28;20124;-69
2022/06/05 04:02:36;;;;;;;2.83;2.28;;;;;;;23.58;39.10;99296.59;5052605;28;20071;-69
2022/06/05 04:05:03;;;;;;;2.50;2.22;;;;;;;23.62;39.12;99300.50;5052776;28;20874;-68
2022/06/05 04:07:29;;;;;;;6.05;2.60;;;;;;;23.63;38.99;99283.25;5052894;28;20400;-70
2022/06/05 04:09:55;;;;;;;3.05;2.30;;;;;;;23.68;38.78;99290.72;5052678;28;20049;-68
2022/06/05 04:12:20;;;;;;;4.13;2.60;;;;;;;23.71;38.89;99288.44;5052517;28;20041;-70
2022/06/05 04:14:46;;;;;;;6.43;2.63;;;;;;;23.77;38.73;99289.44;5052350;28;20067;-69
2022/06/05 04:17:11;;;;;;;4.38;2.50;;;;;;;23.86;38.56;99269.25;5052505;28;20040;-72
2022/06/05 04:19:37;;;;;;;4.03;2.63;;;;;;;23.91;38.68;99279.41;5052775;28;20458;-70
2022/06/05 04:22:03;;;;;;;5.65;2.35;;;;;;;23.89;38.71;99279.63;5052460;28;20040;-69
2022/06/05 04:24:28;;;;;;;3.15;1.92;;;;;;;23.87;38.77;99289.81;5052455;28;20029;-70
2022/06/05 04:26:54;;;;;;;3.72;2.65;;;;;;;23.86;38.52;99303.56;5052436;28;20040;-69
2022/06/05 04:29:19;;;;;;;6.43;3.30;;;;;;;23.83;38.68;99298.56;5052306;28;20033;-70
2022/06/05 04:31:47;;;;;;;3.00;2.22;;;;;;;23.81;38.84;99300.66;5052432;28;20549;-70
2022/06/05 04:34:16;;;;;;;4.53;2.55;;;;;;;23.78;38.79;99313.53;5052515;28;20043;-69
2022/06/05 04:36:43;;;;;;;5.03;2.80;;;;;;;23.74;38.87;99306.94;5052523;28;20102;-69
2022/06/05 04:39:08;;;;;;;3.67;2.45;;;;;;;23.71;38.91;99315.44;5052241;28;20037;-68
2022/06/05 04:41:34;;;;;;;7.95;3.67;;;;;;;23.68;39.02;99320.41;5034434;28;20040;-69
2022/06/05 04:44:00;;;;;;;3.25;2.28;;;;;;;23.64;38.85;99311.09;5052411;28;20128;-69
2022/06/05 04:46:27;;;;;;;3.40;2.28;;;;;;;23.61;39.24;99312.34;5052410;28;20125;-69
2022/06/05 04:48:53;;;;;;;4.72;2.60;;;;;;;23.61;39.15;99312.34;5056425;28;20111;-70
2022/06/05 04:51:22;;;;;;;4.53;2.63;;;;;;;23.59;39.32;99311.75;5056451;28;20056;-70
2022/06/05 04:53:49;;;;;;;3.53;2.33;;;;;;;23.56;39.36;99315.69;5056165;28;20035;-69
2022/06/05 04:56:18;;;;;;;4.35;2.50;;;;;;;23.55;39.44;99334.81;5055905;28;20035;-70
2022/06/05 04:58:44;;;;;;;5.57;2.40;;;;;;;23.51;39.56;99352.47;5056437;28;20102;-69
2022/06/05 05:01:16;;;;;;;3.67;2.40;;;;;;;23.48;39.52;99359.13;5056346;28;20029;-69
2022/06/05 05:03:42;;;;;;;3.67;2.67;;;;;;;23.41;39.37;99351.03;5056280;28;20036;-70
2022/06/05 05:06:07;;;;;;;5.95;2.25;;;;;;;23.40;39.72;99362.88;5038011;28;20399;-69
2022/06/05 05:08:33;;;;;;;6.60;2.20;;;;;;;23.35;39.81;99356.44;5056559;28;20036;-70
2022/06/05 05:10:58;;;;;;;6.78;2.15;;;;;;;23.29;40.07;99347.31;5055863;28;20037;-69
2022/06/05 05:13:24;;;;;;;4.03;2.03;;;;;;;23.25;40.13;99341.47;5055710;28;20083;-69
2022/06/05 05:15:51;;;;;;;3.92;2.47;;;;;;;23.21;40.14;99347.50;5055944;28;20037;-69
2022/06/05 05:18:16;;;;;;;4.03;2.88;;;;;;;23.18;40.36;99356.84;5055928;28;20128;-65
2022/06/05 05:20:42;;;;;;;3.03;2.08;;;;;;;23.13;40.48;99357.47;5055800;28;20036;-67
2022/06/05 05:23:08;;;;;;;4.13;2.03;;;;;;;23.12;40.54;99373.84;5055759;28;20032;-66
2022/06/05 05:25:33;;;;;;;3.70;1.80;;;;;;;23.09;40.58;99374.25;5055315;28;20041;-68
2022/06/05 05:27:59;;;;;;;2.38;1.77;;;;;;;23.06;40.59;99372.81;5055681;28;20483;-68
2022/06/05 05:30:24;;;;;;;6.07;2.38;;;;;;;23.02;40.59;99379.66;5055524;28;20052;-68
2022/06/05 05:32:50;;;;;;;2.42;1.90;;;;;;;22.99;40.50;99383.59;5055506;28;20040;-68
2022/06/05 05:35:16;;;;;;;2.95;2.03;;;;;;;22.99;40.52;99380.09;5054964;28;20594;-68
2022/06/05 05:37:42;;;;;;;5.50;2.13;;;;;;;22.95;40.91;99371.53;5055474;28;20111;-68
2022/06/05 05:42:53;;;;;;;5.28;2.13;;;;;;;22.89;40.96;99345.41;5055552;28;20085;-69
2022/06/05 05:45:18;;;;;;;3.03;1.90;;;;;;;22.88;41.14;99346.44;5055464;28;20123;-69
2022/06/05 05:47:44;;;;;;;3.15;1.65;;;;;;;22.86;41.00;99343.97;5055249;28;20040;-68
2022/06/05 05:50:13;;;;;;;2.10;1.70;;;;;;;22.84;41.21;99329.00;5055489;28;20032;-70
2022/06/05 05:52:39;;;;;;;2.85;1.95;;;;;;;22.82;41.23;99326.53;5055448;28;20033;-68
2022/06/05 05:55:06;;;;;;;2.08;1.77;;;;;;;22.83;41.17;99338.13;5054948;28;20099;-70
2022/06/05 05:57:32;;;;;;;3.17;1.70;;;;;;;22.81;41.37;99324.88;5054891;28;20522;-70
2022/06/05 05:59:57;;;;;;;3.05;1.80;;;;;;;22.81;41.37;99327.56;5054573;28;20025;-69
2022/06/05 06:02:25;;;;;;;4.30;1.63;;;;;;;22.82;41.31;99325.69;5054928;28;20381;-69
2022/06/05 06:04:52;;;;;;;2.92;1.88;;;;;;;22.82;41.50;99320.28;5055079;28;20075;-68
2022/06/05 06:07:18;;;;;;;1.75;1.52;;;;;;;22.83;41.62;99322.78;5055123;28;20040;-68
2022/06/05 06:09:43;;;;;;;3.53;2.45;;;;;;;22.82;41.79;99315.72;5055212;28;20055;-68
2022/06/05 06:12:10;;;;;;;1.98;1.30;;;;;;;22.84;41.62;99324.44;5054904;28;20037;-68
2022/06/05 06:14:37;;;;;;;6.82;1.50;;;;;;;22.85;41.74;99312.63;5054676;28;20373;-69
2022/06/05 06:17:03;;;;;;;3.40;1.58;;;;;;;22.82;41.62;99302.25;5054670;28;20090;-68
2022/06/05 06:19:29;;;;;;;2.42;1.38;;;;;;;22.83;41.63;99289.56;5055008;28;20069;-70
2022/06/05 06:21:54;;;;;;;2.50;1.52;;;;;;;22.85;41.62;99298.28;5054642;28;20060;-69
2022/06/05 06:24:20;;;;;;;2.60;1.52;;;;;;;22.86;41.77;99305.34;5054930;28;20029;-68
2022/06/05 06:26:45;;;;;;;3.25;1.60;;;;;;;22.88;41.68;99316.78;5054705;28;20071;-69
2022/06/05 06:29:11;;;;;;;2.20;1.52;;;;;;;22.93;41.72;99308.06;5055165;28;20037;-69
2022/06/05 06:31:38;;;;;;;2.05;1.60;;;;;;;22.97;41.62;99309.31;5054138;28;20056;-69
2022/06/05 06:34:04;;;;;;;2.35;1.73;;;;;;;23.03;41.57;99311.16;5054481;28;20090;-68
2022/06/05 06:36:30;;;;;;;1.75;1.15;;;;;;;23.07;41.57;99317.81;5054248;28;20064;-68
2022/06/05 06:38:55;;;;;;;2.67;1.55;;;;;;;23.13;41.36;99313.44;5054642;28;20468;-69
2022/06/05 06:41:21;;;;;;;5.15;1.30;;;;;;;23.15;41.50;99316.75;5054455;28;20024;-69
2022/06/05 06:43:48;;;;;;;3.35;1.70;;;;;;;23.19;41.49;99319.88;5054383;28;20400;-69
2022/06/05 06:46:15;;;;;;;2.05;1.30;;;;;;;23.22;41.53;99324.88;5054258;28;20112;-68
2022/06/05 06:48:41;;;;;;;3.75;1.48;;;;;;;23.23;41.48;99313.91;5054121;28;20059;-68
2022/06/05 06:51:08;;;;;;;2.40;1.30;;;;;;;23.25;41.60;99311.78;5053978;28;20091;-67
2022/06/05 06:53:35;;;;;;;2.80;1.45;;;;;;;23.26;41.21;99318.84;5036064;28;20029;-68
2022/06/05 06:56:14;;;;;;;2.10;1.25;;;;;;;23.26;41.19;99316.16;5054005;28;20060;-68
2022/06/05 06:58:41;;;;;;;2.63;1.50;;;;;;;23.25;41.35;99310.97;5054233;28;20041;-68
2022/06/05 07:01:07;;;;;;;3.85;2.53;;;;;;;23.27;41.14;99306.19;5054140;28;20083;-70
2022/06/05 07:03:34;;;;;;;1.50;1.15;;;;;;;23.28;41.27;99316.78;5054221;28;20119;-69
2022/06/05 07:06:01;;;;;;;3.65;1.42;;;;;;;23.30;41.19;99325.50;5053663;28;20506;-69
2022/06/05 07:08:27;;;;;;;3.65;1.70;;;;;;;23.31;41.06;99320.91;5053727;28;20037;-68
2022/06/05 07:10:53;;;;;;;1.40;1.27;;;;;;;23.30;41.16;99317.41;5052557;28;20037;-71
2022/06/05 07:13:18;;;;;;;3.40;1.48;;;;;;;23.32;41.61;99314.47;5053565;28;20395;-70
2022/06/05 07:15:44;;;;;;;2.40;1.58;;;;;;;23.32;41.32;99325.28;5053856;28;20039;-70
2022/06/05 07:18:09;;;;;;;3.47;1.27;;;;;;;23.28;41.19;99327.56;5053936;28;20104;-69
2022/06/05 07:20:38;;;;;;;1.70;1.27;;;;;;;23.25;41.10;99329.88;5053737;28;20028;-69
2022/06/05 07:23:04;;;;;;;3.58;1.35;;;;;;;23.24;41.33;99331.72;5053651;28;20040;-69
2022/06/05 07:25:31;;;;;;;2.25;1.30;;;;;;;23.22;41.33;99332.97;5053372;28;20028;-70
2022/06/05 07:27:57;;;;;;;3.10;1.63;;;;;;;23.21;41.16;99329.47;5053319;28;20116;-69
2022/06/05 07:30:24;;;;;;;3.65;1.42;;;;;;;23.20;41.11;99332.31;5053293;28;20495;-70
2022/06/05 07:32:50;;;;;;;2.22;1.20;;;;;;;23.18;41.30;99332.53;5053314;28;20079;-70
2022/06/05 07:35:16;;;;;;;1.70;1.23;;;;;;;23.21;41.22;99329.47;5053065;28;20032;-70
2022/06/05 07:37:42;;;;;;;1.88;1.30;;;;;;;23.25;41.08;99330.69;5053042;28;20036;-69
2022/06/05 07:40:08;;;;;;;4.32;1.40;;;;;;;23.27;41.13;99328.59;5053425;28;20035;-69
2022/06/05 07:42:38;;;;;;;2.10;0.98;;;;;;;23.30;41.27;99327.38;5052814;28;20033;-70
2022/06/05 07:45:06;;;;;;;1.48;0.93;;;;;;;23.33;41.10;99326.13;5052928;28;20064;-69
2022/06/05 07:47:32;;;;;;;2.05;1.05;;;;;;;23.35;41.06;99324.88;5052711;28;20044;-67
2022/06/05 07:49:57;;;;;;;2.08;1.10;;;;;;;23.38;41.27;99324.44;5053276;28;20086;-69
2022/06/05 07:55:08;;;;;;;4.28;1.20;;;;;;;23.39;41.15;99315.31;5053740;28;20056;-69
2022/06/05 07:57:34;;;;;;;1.73;1.00;;;;;;;23.43;41.18;99327.34;5052955;28;20039;-68
2022/06/05 07:59:59;;;;;;;1.90;1.30;;;;;;;23.42;41.19;99322.16;5053118;28;20029;-70
2022/06/05 08:02:27;;;;;;;6.53;1.52;;;;;;;23.40;41.10;99322.38;5052454;28;20025;-68
2022/06/05 08:04:54;;;;;;;3.45;1.63;;;;;;;23.39;41.12;99326.13;5052678;28;20083;-70
2022/06/05 08:07:25;;;;;;;3.65;1.20;;;;;;;23.40;41.28;99335.88;5052898;28;20484;-69
2022/06/05 08:09:54;;;;;;;1.83;1.30;;;;;;;23.38;41.34;99329.84;5052903;28;20033;-69
2022/06/05 08:12:22;;;;;;;1.42;0.80;;;;;;;23.38;40.97;99332.56;5052300;28;20036;-71
2022/06/05 08:14:49;;;;;;;1.33;0.88;;;;;;;23.38;41.23;99342.53;5052582;28;20538;-69
2022/06/05 08:17:22;;;;;;;2.20;1.02;;;;;;;23.35;41.34;99338.34;5053062;28;20408;-69
2022/06/05 08:19:48;;;;;;;1.30;1.10;;;;;;;23.32;41.00;99338.78;5052484;28;20070;-68
2022/06/05 08:22:16;;;;;;;1.50;1.02;;;;;;;23.35;41.33;99341.06;5052512;28;20119;-69
2022/06/05 08:24:41;;;;;;;1.50;1.00;;;;;;;23.36;41.34;99341.91;5052583;28;20040;-68
2022/06/05 08:27:10;;;;;;;2.50;1.13;;;;;;;23.35;41.10;99335.66;5052465;28;20408;-69
2022/06/05 08:29:35;;;;;;;2.83;1.10;;;;;;;23.38;41.21;99345.22;5052939;28;20059;-68
2022/06/05 08:32:01;;;;;;;3.35;1.25;;;;;;;23.39;41.09;99342.31;5052028;28;20480;-69
2022/06/05 08:34:26;;;;;;;3.35;1.00;;;;;;;23.41;41.34;99340.22;5052299;28;20032;-69
2022/06/05 08:41:26;;;;;;;1.67;1.00;;;;;;;23.42;41.28;99333.78;5052592;28;20033;-70
2022/06/05 08:42:47;;;;;;;1.42;1.20;;;;;;;23.47;41.26;99333.16;5051652;28;20032;-69
2022/06/05 08:45:22;;;;;;;2.05;0.80;;;;;;;23.48;41.52;99329.41;5017857;28;20574;-68
2022/06/05 08:47:53;;;;;;;3.00;1.00;;;;;;;23.50;41.24;99326.50;5052113;28;20032;-69
2022/06/05 08:50:30;;;;;;;4.00;1.13;;;;;;;23.48;41.22;99329.41;5057841;28;20115;-68
2022/06/05 08:53:03;;;;;;;1.60;0.98;;;;;;;23.45;41.05;99325.25;5072045;28;20036;-71
2022/06/05 08:55:31;;;;;;;4.80;1.30;;;;;;;23.40;41.03;99325.06;5072441;28;20479;-71
2022/06/05 08:58:09;;;;;;;4.90;1.17;;;;;;;23.36;40.97;99318.44;5072295;28;20033;-70
2022/06/05 09:00:37;;;;;;;3.17;1.10;;;;;;;23.33;40.99;99315.31;5071149;28;20069;-70
2022/06/05 09:03:08;;;;;;;3.47;0.90;;;;;;;23.30;40.92;99320.09;5069365;28;20047;-70
2022/06/05 09:05:42;;;;;;;;;;;;;;;23.21;41.16;99312.44;5069099;28;20035;-70
2022/06/05 09:08:17;;;;;;;7.18;1.63;;;;;;;23.19;41.03;99312.63;5054806;28;19920;-69
2022/06/05 09:10:48;;;;;;;1.55;0.80;;;;;;;23.18;40.68;99316.34;5072492;28;20059;-71
2022/06/05 09:13:30;;;;;;;1.95;1.30;;;;;;;23.17;40.91;99312.81;5072047;28;20150;-71
2022/06/05 09:16:06;;;;;;;2.35;1.48;;;;;;;23.17;40.72;99312.00;5071946;28;20033;-72
2022/06/05 09:18:36;;;;;;;1.63;1.20;;;;;;;23.13;40.75;99311.59;5070281;28;20081;-71
2022/06/05 09:21:20;;;;;;;1.95;1.23;;;;;;;23.11;40.65;99320.91;5071798;28;20028;-70
2022/06/05 09:23:59;;;;;;;3.08;1.08;;;;;;;23.08;40.56;99326.75;5068940;28;20045;-68
2022/06/05 09:26:42;;;;;;;1.77;1.13;;;;;;;23.04;40.86;99329.00;5051877;28;20064;-68
2022/06/05 09:29:26;;;;;;;3.42;1.52;;;;;;;23.05;40.81;99322.56;5059554;28;20542;-69
2022/06/05 09:32:25;;;;;;;4.80;1.33;;;;;;;23.05;40.76;99335.25;5071649;28;20058;-69
2022/06/05 09:35:12;;;;;;;2.75;1.13;;;;;;;23.00;41.01;99328.59;5067803;28;20040;-69
2022/06/05 09:37:50;;;;;;;3.03;1.13;;;;;;;23.01;41.13;99335.66;5061047;28;20037;-67
2022/06/05 09:40:27;;;;;;;1.80;1.10;;;;;;;23.00;41.15;99327.78;5055606;28;20040;-67
2022/06/05 09:43:11;;;;;;;3.92;1.20;;;;;;;22.99;41.15;99331.50;5060466;28;20541;-66
2022/06/05 09:46:19;;;;;;;2.15;1.00;;;;;;;22.97;41.38;99334.41;5057319;28;20477;-69
2022/06/05 09:49:07;;;;;;;1.95;1.00;;;;;;;22.95;41.40;99335.66;5039924;28;20082;-66
2022/06/05 09:51:35;;;;;;;4.00;1.50;;;;;;;22.97;41.52;99339.78;5036929;28;20093;-66
2022/06/05 09:54:07;;;;;;;3.47;0.98;;;;;;;23.02;41.54;99337.31;5055144;28;20496;-67
2022/06/05 09:59:45;;;;;;;4.45;0.80;;;;;;;23.02;41.52;99336.47;5075100;28;20070;-68
2022/06/05 10:02:11;;;;;;;1.65;1.13;;;;;;;23.01;41.97;99329.44;5074852;28;20040;-68
2022/06/05 10:04:38;;;;;;;2.13;1.00;;;;;;;23.04;41.82;99325.50;5056785;28;20064;-68
2022/06/05 10:07:16;;;;;;;1.85;1.05;;;;;;;23.06;41.86;99326.13;5054906;28;20163;-68
2022/06/05 10:09:46;;;;;;;1.10;0.80;;;;;;;23.08;41.70;99319.47;5055021;28;20039;-67
2022/06/05 10:12:52;;;;;;;2.10;1.17;;;;;;;23.10;41.73;99313.84;5055065;28;20039;-68
2022/06/05 10:15:39;;;;;;;2.22;1.02;;;;;;;23.11;41.69;99312.81;5054400;28;20043;-69
2022/06/05 10:18:14;;;;;;;1.95;0.80;;;;;;;23.12;41.84;99326.13;5054810;28;20041;-68
2022/06/05 10:21:02;;;;;;;3.30;0.98;;;;;;;23.13;41.63;99321.53;5055222;28;20534;-70
2022/06/05 10:23:35;;;;;;;4.30;1.10;;;;;;;23.14;41.88;99324.03;5054657;28;20129;-68
2022/06/05 10:26:29;;;;;;;1.77;1.10;;;;;;;23.14;41.39;99312.41;5054373;28;20170;-67
2022/06/05 10:29:08;;;;;;;1.10;0.70;;;;;;;23.14;41.65;99317.78;5054493;28;20036;-67
2022/06/05 10:31:36;;;;;;;2.42;1.00;;;;;;;23.13;41.34;99319.69;5054145;28;20053;-69
2022/06/05 10:34:31;;;;;;;1.35;0.90;;;;;;;23.12;41.34;99315.31;5055035;28;20088;-68
2022/06/05 10:37:14;;;;;;;1.05;0.63;;;;;;;23.11;41.41;99316.34;5054460;28;20037;-68
2022/06/05 10:40:04;;;;;;;1.85;0.65;;;;;;;23.12;41.30;99319.88;5054383;28;20083;-69
2022/06/05 10:42:52;;;;;;;1.42;0.80;;;;;;;23.11;41.15;99308.25;5054437;28;20029;-69
2022/06/05 10:45:42;;;;;;;2.00;1.23;;;;;;;23.10;41.01;99322.78;5054333;28;20450;-69
2022/06/05 10:48:07;;;;;;;1.95;0.80;;;;;;;23.09;40.99;99312.19;5054458;28;20036;-69
2022/06/05 10:50:52;;;;;;;4.60;0.90;;;;;;;23.06;41.10;99316.13;5054346;28;20033;-70
2022/06/05 10:53:43;;;;;;;1.08;0.60;;;;;;;23.05;41.04;99306.38;5054032;28;20070;-68
2022/06/05 10:56:28;;;;;;;1.95;0.95;;;;;;;23.01;41.09;99297.88;5054294;28;20094;-69
2022/06/05 10:59:11;;;;;;;1.85;0.70;;;;;;;23.02;41.13;99306.78;5054336;28;20039;-69
2022/06/05 11:02:06;;;;;;;1.00;0.63;;;;;;;23.03;40.95;99303.06;5054561;28;20111;-68
2022/06/05 11:05:04;;;;;;;0.98;0.40;;;;;;;23.03;41.00;99308.44;5054412;28;20395;-70
2022/06/05 11:07:48;;;;;;;1.48;0.50;;;;;;;23.02;40.88;99310.34;5039632;28;20115;-69
2022/06/05 11:13:39;;;;;;;2.67;0.70;;;;;;;23.03;40.77;99303.06;5053823;28;20043;-70
2022/06/05 11:16:19;;;;;;;1.05;0.60;;;;;;;23.01;40.25;99297.06;5054198;28;20067;-69
2022/06/05 11:18:49;;;;;;;1.27;0.70;;;;;;;22.98;40.08;99292.91;5053731;28;20043;-69
2022/06/05 11:21:21;;;;;;;2.10;1.08;;;;;;;22.99;40.20;99291.03;5053420;28;20028;-70
2022/06/05 11:23:51;;;;;;;1.70;0.60;;;;;;;23.00;40.15;99300.81;5053557;28;20036;-69
2022/06/05 11:26:48;;;;;;;0.93;0.57;;;;;;;23.01;40.00;99295.19;5053752;28;20036;-68
2022/06/05 11:29:34;;;;;;;1.33;0.70;;;;;;;22.98;39.99;99295.59;4999071;28;20090;-69
2022/06/05 11:32:41;;;;;;;1.85;0.57;;;;;;;22.98;40.02;99302.88;5053500;28;20175;-69
2022/06/05 11:35:16;;;;;;;1.08;0.70;;;;;;;22.96;40.39;99303.06;5039666;28;20057;-69
2022/06/05 11:37:53;;;;;;;0.90;0.70;;;;;;;22.98;40.15;99297.47;5053795;28;20098;-69
2022/06/05 11:40:44;;;;;;;1.90;0.85;;;;;;;22.97;40.24;99304.72;5053264;28;20118;-69
2022/06/05 11:43:35;;;;;;;1.30;0.60;;;;;;;22.97;40.47;99301.22;5036788;28;20137;-68
2022/06/05 11:46:03;;;;;;;1.92;0.63;;;;;;;22.96;40.47;99291.44;5053007;28;20432;-69
2022/06/05 11:49:13;;;;;;;1.90;0.80;;;;;;;22.98;40.32;99297.47;5053357;28;20029;-69
2022/06/05 11:52:25;;;;;;;3.13;0.80;;;;;;;22.96;40.10;99294.16;5052806;28;20029;-69
2022/06/05 11:55:02;;;;;;;1.20;0.70;;;;;;;22.94;40.22;99294.34;5052844;28;20443;-69
2022/06/05 11:58:05;;;;;;;2.65;0.90;;;;;;;22.95;40.43;99289.78;5066038;28;20040;-68
2022/06/05 12:01:00;;;;;;;4.63;1.13;;;;;;;22.93;40.29;99284.63;5067890;28;20040;-68
2022/06/05 12:03:43;;;;;;;2.22;1.02;;;;;;;22.93;40.17;99286.47;5058143;28;20045;-68
2022/06/05 12:06:15;;;;;;;0.88;0.75;;;;;;;22.92;40.31;99288.34;5052802;28;20036;-69
2022/06/05 12:09:00;;;;;;;1.30;1.00;;;;;;;22.92;40.23;99282.94;5053165;28;20447;-69
2022/06/05 12:11:44;;;;;;;1.50;1.00;;;;;;;22.92;40.02;99282.94;5052775;28;20036;-69
2022/06/05 12:14:09;;;;;;;1.92;0.88;;;;;;;22.92;39.80;99279.41;5052757;28;20036;-68
2022/06/05 12:16:50;;;;;;;1.58;1.00;;;;;;;22.92;40.02;99274.00;5052668;28;20044;-68